Time;durP1;ratioP1;P1;durP2;ratioP2;P2;SDS_P1;SDS_P2;PMS_P1;PMS_P2;Temp;Humidity;BMP_temperature;BMP_pressure;BME280_temperature;BME280_humidity;BME280_pressure;Samples;Min_cycle;Max_cycle;Signal;HPM_P1;HPM_P2
2024/01/06 00:01:29;;;;;;;8.83;3.90;;;;;;;14.81;47.07;100522.22;5063714;28;20536;-73
2024/01/06 00:03:55;;;;;;;7.83;3.67;;;;;;;14.64;48.20;100528.00;5057524;28;20021;-73
2024/01/06 00:06:21;;;;;;;10.07;4.10;;;;;;;14.24;48.60;100529.22;5051621;28;20024;-73
2024/01/06 00:08:51;;;;;;;6.90;4.03;;;;;;;14.25;47.95;100536.19;5057155;28;20040;-73
2024/01/06 00:11:16;;;;;;;7.10;3.70;;;;;;;13.56;49.90;100536.41;5048586;28;20016;-73
2024/01/06 00:13:41;;;;;;;6.23;3.27;;;;;;;14.31;48.35;100530.75;5058754;28;20214;-73
2024/01/06 00:16:07;;;;;;;5.93;3.70;;;;;;;13.72;48.56;100537.72;5053356;28;20024;-73
2024/01/06 00:18:32;;;;;;;6.73;3.43;;;;;;;14.24;47.87;100537.09;5055860;28;20039;-73
2024/01/06 00:20:58;;;;;;;6.87;3.67;;;;;;;13.82;49.80;100537.44;5061362;28;20501;-73
2024/01/06 00:23:23;;;;;;;7.20;4.10;;;;;;;14.04;49.16;100538.56;5051399;28;20476;-73
2024/01/06 00:25:48;;;;;;;6.30;2.90;;;;;;;13.61;48.92;100538.91;5057461;28;20282;-73
2024/01/06 00:28:14;;;;;;;9.27;4.67;;;;;;;14.71;47.30;100541.84;5050712;28;20033;-73
2024/01/06 00:30:39;;;;;;;8.50;3.67;;;;;;;14.39;48.07;100544.53;5054480;28;20108;-73
2024/01/06 00:33:04;;;;;;;8.13;3.43;;;;;;;14.88;46.35;100547.41;5038253;28;20032;-72
2024/01/06 00:35:30;;;;;;;9.40;3.90;;;;;;;14.98;46.88;100542.72;5033335;28;20038;-73
2024/01/06 00:37:55;;;;;;;6.33;3.37;;;;;;;14.35;47.77;100548.16;5034816;28;20542;-74
2024/01/06 00:40:20;;;;;;;8.50;3.57;;;;;;;14.30;47.42;100544.81;5059238;28;20033;-73
2024/01/06 00:42:46;;;;;;;5.57;3.20;;;;;;;15.15;45.85;100543.91;5043466;28;20247;-73
2024/01/06 00:45:11;;;;;;;5.13;3.27;;;;;;;14.24;47.38;100540.59;5047997;28;20105;-73
2024/01/06 00:47:37;;;;;;;6.03;3.10;;;;;;;14.32;47.15;100547.41;5032816;28;20468;-73
2024/01/06 00:50:02;;;;;;;7.43;2.90;;;;;;;14.57;46.82;100552.75;5061555;28;20040;-73
2024/01/06 00:52:27;;;;;;;5.77;3.27;;;;;;;13.68;48.85;100561.47;5051895;28;20420;-73
2024/01/06 00:54:53;;;;;;;6.23;3.57;;;;;;;14.03;47.81;100562.25;5057275;28;20083;-73
2024/01/06 00:57:23;;;;;;;6.33;3.10;;;;;;;13.43;48.88;100566.50;5050457;28;20080;-73
2024/01/06 00:59:49;;;;;;;4.50;2.87;;;;;;;13.71;49.12;100567.50;5049879;28;20530;-73
2024/01/06 01:02:14;;;;;;;5.93;3.03;;;;;;;13.56;48.84;100563.53;5051174;28;20041;-73
2024/01/06 01:04:40;;;;;;;4.93;2.93;;;;;;;14.40;46.91;100556.78;5058749;28;20033;-73
2024/01/06 01:07:05;;;;;;;5.47;1.90;;;;;;;13.36;48.35;100571.91;5045206;28;20516;-73
2024/01/06 01:09:30;;;;;;;3.80;2.17;;;;;;;13.65;48.66;100577.31;5059955;28;20043;-73
2024/01/06 01:11:56;;;;;;;3.23;2.07;;;;;;;14.60;46.31;100581.59;5053449;28;20068;-73
2024/01/06 01:14:21;;;;;;;4.77;3.27;;;;;;;13.27;48.65;100582.63;5061546;28;20060;-73
2024/01/06 01:16:46;;;;;;;5.13;2.60;;;;;;;14.26;46.94;100582.63;5068358;28;20391;-73
2024/01/06 01:19:12;;;;;;;7.70;2.87;;;;;;;14.75;45.50;100588.19;5055881;28;20029;-73
2024/01/06 01:21:37;;;;;;;3.37;2.20;;;;;;;13.91;48.49;100595.00;5057851;28;20037;-73
2024/01/06 01:24:03;;;;;;;3.47;1.87;;;;;;;13.52;47.97;100603.03;5053363;28;20036;-73
2024/01/06 01:26:31;;;;;;;3.83;1.83;;;;;;;14.49;46.32;100602.09;5059069;28;20434;-73
2024/01/06 01:28:57;;;;;;;2.20;1.60;;;;;;;13.38;47.98;100609.50;5054033;28;20503;-72
2024/01/06 01:31:22;;;;;;;4.73;1.70;;;;;;;13.36;47.76;100621.78;5047577;28;20029;-72
2024/01/06 01:33:47;;;;;;;4.23;2.10;;;;;;;14.07;46.50;100612.03;5051397;28;20510;-73
2024/01/06 01:36:13;;;;;;;3.37;2.03;;;;;;;14.31;46.27;100624.53;5054557;28;20534;-73
2024/01/06 01:38:38;;;;;;;4.30;2.37;;;;;;;14.27;46.37;100621.13;5033056;28;20032;-73
2024/01/06 01:41:03;;;;;;;2.83;2.00;;;;;;;13.89;46.45;100633.59;5063202;28;20025;-73
2024/01/06 01:43:30;;;;;;;3.37;2.00;;;;;;;14.21;45.54;100626.56;5049208;28;20033;-73
2024/01/06 01:45:56;;;;;;;5.50;2.43;;;;;;;14.64;45.42;100622.69;5066232;28;20036;-73
2024/01/06 01:48:23;;;;;;;4.93;2.47;;;;;;;14.37;46.07;100629.59;5061058;28;20060;-73
2024/01/06 01:50:49;;;;;;;5.97;1.77;;;;;;;14.10;47.19;100628.66;5050283;28;20037;-73
2024/01/06 01:53:14;;;;;;;2.23;2.00;;;;;;;14.12;47.18;100634.72;5051024;28;20063;-73
2024/01/06 01:55:43;;;;;;;3.00;1.87;;;;;;;13.80;47.18;100633.84;5038373;28;20416;-73
2024/01/06 01:58:12;;;;;;;5.53;2.63;;;;;;;13.86;47.62;100644.16;5034752;28;20028;-73
2024/01/06 02:00:37;;;;;;;5.53;2.10;;;;;;;13.55;47.72;100644.97;5055344;28;20033;-73
2024/01/06 02:03:04;;;;;;;5.80;2.30;;;;;;;15.09;45.35;100639.75;5051249;28;20127;-73
2024/01/06 02:05:30;;;;;;;4.33;2.20;;;;;;;15.23;45.19;100648.06;5051407;28;20036;-72
2024/01/06 02:07:56;;;;;;;4.63;2.93;;;;;;;15.36;44.76;100647.66;5049512;28;20411;-73
2024/01/06 02:10:21;;;;;;;3.20;2.63;;;;;;;14.20;47.07;100648.50;5047006;28;20032;-73
2024/01/06 02:12:48;;;;;;;4.50;1.97;;;;;;;13.97;47.38;100651.75;5048507;28;20040;-73
2024/01/06 02:15:14;;;;;;;4.43;2.60;;;;;;;15.13;45.22;100656.31;5040263;28;20453;-73
2024/01/06 02:17:40;;;;;;;3.77;2.57;;;;;;;13.97;47.11;100652.63;5069444;28;20028;-72
2024/01/06 02:20:07;;;;;;;3.20;2.27;;;;;;;14.81;45.85;100650.28;5054769;28;20025;-73
2024/01/06 02:22:34;;;;;;;4.57;3.03;;;;;;;14.89;44.93;100661.41;5059612;28;20033;-72
2024/01/06 02:25:00;;;;;;;2.87;1.80;;;;;;;12.84;49.00;100672.84;5050891;28;20563;-72
2024/01/06 02:27:26;;;;;;;5.77;2.70;;;;;;;13.35;48.07;100676.91;5069245;28;20035;-72
2024/01/06 02:29:51;;;;;;;4.33;2.47;;;;;;;13.39;48.12;100684.75;5051233;28;20477;-73
2024/01/06 02:32:16;;;;;;;4.80;2.57;;;;;;;13.72;46.85;100692.69;5056444;28;20492;-73
2024/01/06 02:34:41;;;;;;;2.97;2.17;;;;;;;13.46;46.90;100692.44;5049947;28;20441;-73
2024/01/06 02:37:07;;;;;;;2.87;2.30;;;;;;;13.40;48.16;100698.72;5063220;28;20036;-73
2024/01/06 02:39:32;;;;;;;6.60;3.13;;;;;;;13.76;47.52;100697.84;5063941;28;20029;-72
2024/01/06 02:41:58;;;;;;;4.17;3.13;;;;;;;14.66;45.06;100693.69;5058699;28;20028;-73
2024/01/06 02:44:23;;;;;;;3.67;2.50;;;;;;;13.91;45.98;100702.72;5069255;28;20028;-73
2024/01/06 02:46:48;;;;;;;4.80;2.90;;;;;;;13.32;48.32;100706.72;5062289;28;20032;-73
2024/01/06 02:49:14;;;;;;;8.37;3.40;;;;;;;13.11;47.67;100702.84;5048878;28;20075;-73
2024/01/06 02:51:39;;;;;;;5.03;2.80;;;;;;;13.49;47.17;100708.13;5048650;28;20063;-73
2024/01/06 02:54:04;;;;;;;5.50;2.43;;;;;;;14.18;45.82;100708.16;5048285;28;20033;-73
2024/01/06 02:56:30;;;;;;;3.53;2.53;;;;;;;12.95;47.93;100714.59;5052274;28;20068;-72
2024/01/06 02:58:55;;;;;;;6.73;2.30;;;;;;;12.93;49.06;100719.88;5049174;28;20380;-72
2024/01/06 03:01:20;;;;;;;3.00;1.90;;;;;;;12.34;49.14;100734.16;5049135;28;20036;-73
2024/01/06 03:03:46;;;;;;;4.47;2.70;;;;;;;12.76;49.36;100727.22;5049884;28;20032;-73
2024/01/06 03:06:11;;;;;;;4.83;2.30;;;;;;;12.66;48.88;100727.41;5035078;28;20026;-73
2024/01/06 03:08:36;;;;;;;3.47;2.63;;;;;;;13.56;46.73;100736.00;5048543;28;20080;-73
2024/01/06 03:11:03;;;;;;;8.87;3.40;;;;;;;12.51;49.46;100733.81;5049714;28;20021;-73
2024/01/06 03:13:29;;;;;;;7.23;3.00;;;;;;;13.39;47.91;100734.63;5049756;28;20426;-72
2024/01/06 03:15:54;;;;;;;5.60;3.23;;;;;;;12.93;49.10;100740.84;5046462;28;20120;-73
2024/01/06 03:18:20;;;;;;;5.23;3.07;;;;;;;12.58;50.51;100737.19;5049619;28;20060;-73
2024/01/06 03:20:45;;;;;;;12.33;3.43;;;;;;;13.15;48.44;100741.25;5048269;28;20074;-72
2024/01/06 03:23:10;;;;;;;9.07;4.00;;;;;;;13.30;48.82;100739.16;5047559;28;20039;-73
2024/01/06 03:25:36;;;;;;;5.57;3.47;;;;;;;13.59;47.40;100746.41;5064562;28;20473;-73
2024/01/06 03:28:01;;;;;;;6.43;3.50;;;;;;;13.86;47.25;100744.00;5047508;28;20028;-72
2024/01/06 03:30:27;;;;;;;10.70;3.70;;;;;;;13.79;47.25;100752.94;5048032;28;20040;-73
2024/01/06 03:32:52;;;;;;;5.43;3.27;;;;;;;12.87;49.28;100752.34;5061212;28;20468;-72
2024/01/06 03:35:17;;;;;;;6.90;3.50;;;;;;;12.49;49.70;100760.97;5057944;28;20075;-72
2024/01/06 03:37:43;;;;;;;8.07;3.77;;;;;;;12.96;48.44;100751.28;5057420;28;20098;-72
2024/01/06 03:40:09;;;;;;;10.00;4.67;;;;;;;13.80;47.11;100759.94;5065742;28;20028;-72
2024/01/06 03:42:36;;;;;;;5.50;3.63;;;;;;;13.47;47.47;100765.94;5052866;28;20025;-73
2024/01/06 03:45:02;;;;;;;7.73;3.83;;;;;;;13.47;47.70;100768.56;5047295;28;20040;-73
2024/01/06 03:47:27;;;;;;;7.33;3.17;;;;;;;12.82;49.13;100769.06;5054821;28;20032;-73
2024/01/06 03:49:52;;;;;;;10.13;3.63;;;;;;;13.21;48.78;100767.34;5062752;28;20045;-73
2024/01/06 03:52:18;;;;;;;7.20;3.90;;;;;;;13.42;48.92;100769.56;5050773;28;20464;-73
2024/01/06 03:54:43;;;;;;;6.73;3.53;;;;;;;14.21;46.70;100781.66;5055559;28;20044;-73
2024/01/06 03:57:08;;;;;;;8.10;3.67;;;;;;;13.68;47.79;100792.59;5041308;28;20535;-73
2024/01/06 03:59:34;;;;;;;8.43;4.03;;;;;;;12.28;51.42;100789.31;5069440;28;20040;-73
2024/01/06 04:01:59;;;;;;;5.87;3.10;;;;;;;13.56;48.23;100783.25;5051875;28;20032;-73
2024/01/06 04:04:24;;;;;;;8.13;4.10;;;;;;;13.52;48.57;100784.22;5067904;28;20539;-73
2024/01/06 04:06:50;;;;;;;7.97;4.40;;;;;;;13.38;48.66;100793.28;5068214;28;20037;-73
2024/01/06 04:09:15;;;;;;;8.00;3.57;;;;;;;12.87;49.59;100798.69;5049789;28;20106;-73
2024/01/06 04:11:40;;;;;;;8.03;3.63;;;;;;;13.03;48.89;100800.09;5063970;28;20032;-73
2024/01/06 04:14:06;;;;;;;3.67;2.17;;;;;;;12.16;50.60;100807.88;5060820;28;20036;-73
2024/01/06 04:16:31;;;;;;;5.33;3.07;;;;;;;12.91;48.71;100805.59;5069268;28;20107;-73
2024/01/06 04:18:56;;;;;;;4.53;2.30;;;;;;;13.02;48.18;100808.88;5054293;28;20060;-73
2024/01/06 04:21:22;;;;;;;3.03;2.33;;;;;;;12.17;50.46;100820.06;5047953;28;20033;-73
2024/01/06 04:23:47;;;;;;;5.23;2.43;;;;;;;12.93;48.48;100819.56;5058947;28;20075;-73
2024/01/06 04:26:13;;;;;;;6.47;2.57;;;;;;;11.75;50.63;100825.09;5067781;28;20021;-73
2024/01/06 04:28:38;;;;;;;5.27;2.70;;;;;;;12.58;49.34;100818.47;5058447;28;20480;-73
2024/01/06 04:31:03;;;;;;;5.37;3.10;;;;;;;13.71;47.31;100810.91;5047935;28;20083;-73
2024/01/06 04:33:29;;;;;;;4.83;2.80;;;;;;;13.20;48.29;100822.50;5046201;28;20494;-73
2024/01/06 04:35:54;;;;;;;4.90;2.27;;;;;;;12.17;49.17;100838.41;5049479;28;20503;-73
2024/01/06 04:38:20;;;;;;;5.20;2.93;;;;;;;12.84;48.73;100833.69;5052826;28;20028;-73
2024/01/06 04:40:45;;;;;;;5.13;2.87;;;;;;;13.78;46.94;100828.25;5047510;28;20061;-73
2024/01/06 04:43:11;;;;;;;5.00;3.03;;;;;;;13.43;48.24;100829.91;5033435;28;20021;-73
2024/01/06 04:45:37;;;;;;;5.40;3.10;;;;;;;13.37;47.92;100833.53;5071277;28;20028;-73
2024/01/06 04:48:03;;;;;;;5.27;3.40;;;;;;;12.31;50.41;100839.06;5036830;28;20018;-73
2024/01/06 04:50:31;;;;;;;4.83;3.00;;;;;;;13.20;48.07;100828.63;5067250;28;20378;-73
2024/01/06 04:52:57;;;;;;;5.07;2.50;;;;;;;13.51;47.55;100835.00;5047736;28;20048;-73
2024/01/06 04:55:22;;;;;;;5.53;2.60;;;;;;;12.36;49.69;100839.84;5058304;28;20024;-73
2024/01/06 04:57:49;;;;;;;4.70;2.50;;;;;;;12.07;50.51;100842.06;5045178;28;20103;-73
2024/01/06 05:00:15;;;;;;;6.40;2.73;;;;;;;12.56;50.06;100846.47;5071987;28;20113;-73
2024/01/06 05:02:41;;;;;;;4.13;2.67;;;;;;;13.17;48.59;100833.91;5049688;28;20120;-72
2024/01/06 05:05:06;;;;;;;9.97;2.73;;;;;;;12.70;49.29;100849.69;5065018;28;20028;-73
2024/01/06 05:07:31;;;;;;;6.60;2.37;;;;;;;12.42;50.27;100844.09;5060761;28;20488;-73
2024/01/06 05:09:57;;;;;;;6.23;2.53;;;;;;;13.22;48.75;100844.34;5064528;28;20411;-73
2024/01/06 05:12:22;;;;;;;4.23;2.57;;;;;;;13.17;49.05;100859.31;5051459;28;20155;-73
2024/01/06 05:14:48;;;;;;;3.93;2.50;;;;;;;13.66;47.44;100853.03;5061522;28;20508;-73
2024/01/06 05:17:13;;;;;;;7.70;3.43;;;;;;;14.49;45.77;100851.94;5072449;28;20032;-73
2024/01/06 05:19:38;;;;;;;5.53;3.00;;;;;;;14.10;47.01;100857.31;5058746;28;20112;-73
2024/01/06 05:22:04;;;;;;;4.33;2.57;;;;;;;13.88;46.54;100863.06;5046247;28;20040;-73
2024/01/06 05:24:29;;;;;;;5.60;2.77;;;;;;;12.20;49.29;100875.06;5064921;28;20066;-73
2024/01/06 05:26:54;;;;;;;7.23;2.90;;;;;;;13.32;48.31;100874.72;5050609;28;20142;-73
2024/01/06 05:29:20;;;;;;;4.53;2.73;;;;;;;13.73;47.24;100870.38;5048059;28;20103;-73
2024/01/06 05:31:47;;;;;;;7.87;2.70;;;;;;;13.05;48.37;100877.03;5048975;28;20519;-73
2024/01/06 05:34:13;;;;;;;2.73;2.33;;;;;;;11.68;51.11;100877.53;5047194;28;20083;-73
2024/01/06 05:36:38;;;;;;;7.43;2.93;;;;;;;13.47;48.25;100872.72;5069620;28;20459;-73
2024/01/06 05:39:04;;;;;;;5.20;2.97;;;;;;;14.12;46.03;100868.63;5035911;28;20032;-73
2024/01/06 05:41:29;;;;;;;4.23;2.13;;;;;;;12.91;48.91;100879.03;5067417;28;20039;-73
2024/01/06 05:43:55;;;;;;;7.17;3.60;;;;;;;12.58;49.84;100886.63;5051256;28;20063;-73
2024/01/06 05:46:21;;;;;;;3.17;1.90;;;;;;;12.03;50.31;100891.03;5065355;28;20036;-72
2024/01/06 05:48:47;;;;;;;4.73;2.33;;;;;;;12.72;49.44;100889.91;5049551;28;20415;-73
2024/01/06 05:51:12;;;;;;;4.23;2.30;;;;;;;12.42;49.02;100895.66;5053435;28;20024;-72
2024/01/06 05:53:37;;;;;;;3.07;2.30;;;;;;;13.13;47.24;100900.47;5050994;28;20128;-73
2024/01/06 05:56:03;;;;;;;6.50;2.50;;;;;;;12.53;48.91;100905.06;5057816;28;20461;-73
2024/01/06 05:58:29;;;;;;;3.07;1.90;;;;;;;12.84;47.99;100907.16;5056062;28;20433;-73
2024/01/06 06:00:54;;;;;;;4.67;2.30;;;;;;;12.72;48.21;100915.22;5050278;28;20057;-73
2024/01/06 06:03:20;;;;;;;3.83;1.83;;;;;;;12.49;47.98;100918.28;5049556;28;20029;-73
2024/01/06 06:05:45;;;;;;;3.43;2.00;;;;;;;13.57;47.14;100914.53;5048879;28;20060;-73
2024/01/06 06:08:10;;;;;;;6.10;2.10;;;;;;;14.40;44.84;100913.53;5066703;28;20024;-73
2024/01/06 06:10:59;;;;;;;3.23;2.00;;;;;;;13.68;45.45;100924.81;5056093;28;20098;-73
2024/01/06 06:13:24;;;;;;;3.37;2.10;;;;;;;12.59;47.97;100932.94;5046278;28;20034;-74
2024/01/06 06:15:50;;;;;;;1.77;1.60;;;;;;;13.74;45.65;100935.16;5043136;28;20032;-73
2024/01/06 06:18:16;;;;;;;7.37;2.80;;;;;;;12.84;47.69;100950.88;5069120;28;20487;-73
2024/01/06 06:20:43;;;;;;;4.07;2.87;;;;;;;12.88;47.66;100949.94;5063989;28;20033;-73
2024/01/06 06:23:09;;;;;;;2.37;1.80;;;;;;;13.57;46.85;100953.03;5049369;28;20025;-73
2024/01/06 06:25:34;;;;;;;8.97;2.67;;;;;;;13.57;46.06;100953.91;5051192;28;20558;-73
2024/01/06 06:28:00;;;;;;;4.60;2.67;;;;;;;13.06;47.21;100957.50;5051767;28;20116;-73
2024/01/06 06:30:25;;;;;;;7.03;2.97;;;;;;;12.90;47.54;100961.28;5049366;28;20029;-73
2024/01/06 06:32:51;;;;;;;2.53;1.80;;;;;;;12.58;48.78;100959.19;5041955;28;20144;-73
2024/01/06 06:35:16;;;;;;;4.87;2.67;;;;;;;12.83;47.05;100964.88;5045651;28;20021;-73
2024/01/06 06:37:42;;;;;;;3.43;2.20;;;;;;;12.86;46.93;100967.47;5065225;28;20071;-73
2024/01/06 06:40:07;;;;;;;4.20;2.30;;;;;;;12.32;48.27;100971.84;5048026;28;20017;-73
2024/01/06 06:42:33;;;;;;;4.27;2.07;;;;;;;12.80;47.49;100980.69;5049024;28;20021;-73
2024/01/06 06:44:58;;;;;;;5.37;1.93;;;;;;;12.18;49.46;100981.63;5048575;28;20048;-72
2024/01/06 06:47:23;;;;;;;3.80;2.10;;;;;;;12.03;49.29;100983.59;5059732;28;20100;-73
2024/01/06 06:49:49;;;;;;;5.93;2.17;;;;;;;12.80;47.82;100983.31;5049730;28;20097;-73
2024/01/06 06:52:14;;;;;;;3.67;2.03;;;;;;;13.06;47.39;100991.63;5062620;28;20437;-73
2024/01/06 06:54:39;;;;;;;3.97;2.23;;;;;;;12.47;48.41;100993.44;5046870;28;20036;-73
2024/01/06 06:57:05;;;;;;;5.10;2.37;;;;;;;12.60;49.14;100995.00;5045973;28;20404;-73
2024/01/06 06:59:31;;;;;;;2.90;2.27;;;;;;;12.27;49.75;101007.72;5030157;28;20480;-72
2024/01/06 07:01:57;;;;;;;4.60;2.80;;;;;;;12.83;48.71;101001.63;5055462;28;20075;-73
2024/01/06 07:04:23;;;;;;;8.27;3.03;;;;;;;12.49;49.44;101012.66;5044085;28;20024;-73
2024/01/06 07:06:48;;;;;;;8.10;3.20;;;;;;;12.08;49.97;101016.75;5055414;28;20678;-73
2024/01/06 07:09:14;;;;;;;3.53;2.43;;;;;;;11.51;51.29;101018.22;5068532;28;20028;-73
2024/01/06 07:11:39;;;;;;;4.07;2.63;;;;;;;11.52;51.92;101022.59;5064345;28;20104;-73
2024/01/06 07:14:04;;;;;;;4.73;2.80;;;;;;;12.19;50.37;101025.31;5050832;28;20037;-73
2024/01/06 07:16:30;;;;;;;6.37;3.00;;;;;;;12.60;49.16;101036.97;5051582;28;20036;-73
2024/01/06 07:18:55;;;;;;;5.40;2.43;;;;;;;11.66;51.85;101046.88;5066336;28;20025;-73
2024/01/06 07:21:20;;;;;;;4.57;2.20;;;;;;;11.90;50.69;101044.84;5042721;28;20052;-73
2024/01/06 07:23:46;;;;;;;6.67;3.13;;;;;;;12.62;49.15;101045.66;5060785;28;20068;-73
2024/01/06 07:26:11;;;;;;;7.33;2.80;;;;;;;13.18;47.99;101040.38;5048465;28;20029;-73
2024/01/06 07:28:36;;;;;;;9.40;2.97;;;;;;;12.87;49.09;101055.75;5041134;28;20033;-73
2024/01/06 07:31:02;;;;;;;3.87;2.90;;;;;;;12.24;49.43;101065.44;5048710;28;20396;-73
2024/01/06 07:33:27;;;;;;;3.13;2.13;;;;;;;12.25;49.43;101072.38;5050451;28;20066;-73
2024/01/06 07:35:52;;;;;;;3.83;2.67;;;;;;;12.30;50.38;101069.72;5047496;28;20029;-73
2024/01/06 07:38:19;;;;;;;4.70;2.63;;;;;;;13.08;46.95;101065.06;5063199;28;20028;-72
2024/01/06 07:40:44;;;;;;;4.40;2.80;;;;;;;13.56;47.67;101078.25;5057195;28;20032;-73
2024/01/06 07:43:10;;;;;;;6.83;3.93;;;;;;;14.33;45.78;101075.84;5051444;28;20120;-73
2024/01/06 07:45:35;;;;;;;7.30;3.30;;;;;;;14.15;45.51;101079.72;5044351;28;20063;-72
2024/01/06 07:48:01;;;;;;;4.57;2.83;;;;;;;12.67;48.76;101091.03;5048543;28;20104;-72
2024/01/06 07:50:27;;;;;;;4.97;3.30;;;;;;;12.67;48.72;101091.03;5048789;28;20090;-73
2024/01/06 07:52:53;;;;;;;5.67;3.03;;;;;;;12.89;48.69;101088.09;5057887;28;20063;-72
2024/01/06 07:55:19;;;;;;;5.17;3.27;;;;;;;12.10;50.19;101093.56;5041544;28;20504;-72
2024/01/06 07:57:44;;;;;;;5.90;3.37;;;;;;;12.82;48.48;101099.59;5049350;28;20037;-72
2024/01/06 08:00:10;;;;;;;8.27;2.87;;;;;;;12.68;48.39;101113.75;5050081;28;20028;-72
2024/01/06 08:02:35;;;;;;;8.43;3.40;;;;;;;12.64;48.77;101111.19;5052229;28;20021;-72
2024/01/06 08:05:01;;;;;;;4.50;2.57;;;;;;;12.49;48.47;101114.91;5064646;28;20484;-72
2024/01/06 08:07:26;;;;;;;7.57;3.03;;;;;;;12.97;47.69;101114.19;5049629;28;20031;-73
2024/01/06 08:09:52;;;;;;;5.10;2.80;;;;;;;12.61;48.84;101120.00;5059024;28;20021;-73
2024/01/06 08:12:18;;;;;;;8.27;3.23;;;;;;;12.86;47.69;101123.13;5047568;28;20032;-72
2024/01/06 08:14:43;;;;;;;6.77;3.30;;;;;;;12.66;48.54;101131.25;5071283;28;20082;-73
2024/01/06 08:17:08;;;;;;;7.30;2.80;;;;;;;13.01;47.82;101131.63;5056385;28;20473;-73
2024/01/06 08:19:35;;;;;;;6.07;3.43;;;;;;;12.49;48.29;101138.50;5052138;28;20495;-73
2024/01/06 08:22:01;;;;;;;5.53;2.80;;;;;;;12.90;47.91;101140.53;5052774;28;20381;-73
2024/01/06 08:24:26;;;;;;;6.27;3.00;;;;;;;13.19;47.24;101141.00;5060194;28;20032;-73
2024/01/06 08:26:51;;;;;;;7.90;3.40;;;;;;;13.21;47.11;101150.56;5048043;28;20108;-73
2024/01/06 08:29:19;;;;;;;8.53;3.10;;;;;;;13.33;46.54;101149.50;5068094;28;20036;-73
2024/01/06 08:31:44;;;;;;;5.90;3.30;;;;;;;12.59;48.15;101150.59;5061622;28;20505;-73
2024/01/06 08:34:10;;;;;;;5.97;2.90;;;;;;;14.24;44.72;101157.53;5066276;28;20054;-72
2024/01/06 08:36:35;;;;;;;8.33;2.53;;;;;;;12.07;48.66;101161.72;5052440;28;20039;-73
2024/01/06 08:39:00;;;;;;;5.27;3.33;;;;;;;13.44;46.25;101165.13;5062783;28;20020;-73
2024/01/06 08:41:26;;;;;;;7.43;3.10;;;;;;;13.51;45.97;101158.00;5056229;28;20393;-73
2024/01/06 08:43:51;;;;;;;4.87;3.20;;;;;;;13.80;45.70;101162.72;5050178;28;20063;-73
2024/01/06 08:46:17;;;;;;;7.63;2.80;;;;;;;14.15;44.58;101165.59;5048880;28;20178;-73
2024/01/06 08:48:42;;;;;;;8.93;3.40;;;;;;;14.24;44.40;101162.78;5048142;28;20048;-73
2024/01/06 08:51:07;;;;;;;3.80;3.13;;;;;;;13.58;46.36;101165.72;5031812;28;20089;-73
2024/01/06 08:53:33;;;;;;;5.77;2.97;;;;;;;12.95;47.01;101166.69;5045319;28;20027;-73
2024/01/06 08:55:58;;;;;;;6.37;3.13;;;;;;;13.51;46.22;101177.25;5052734;28;20039;-73
2024/01/06 08:58:23;;;;;;;4.40;2.63;;;;;;;13.26;46.84;101187.25;5056814;28;20042;-73
2024/01/06 09:00:50;;;;;;;11.37;3.00;;;;;;;12.29;48.33;101191.16;5055024;28;20083;-73
2024/01/06 09:03:15;;;;;;;3.30;2.50;;;;;;;11.94;48.97;101197.59;5034884;28;20041;-73
2024/01/06 09:05:41;;;;;;;7.50;4.30;;;;;;;12.48;48.57;101199.69;5060951;28;20396;-73
2024/01/06 09:08:06;;;;;;;4.47;2.80;;;;;;;12.50;48.74;101201.41;5050474;28;20477;-73
2024/01/06 09:10:31;;;;;;;4.60;3.10;;;;;;;12.90;47.87;101202.66;5049282;28;20021;-73
2024/01/06 09:12:57;;;;;;;6.10;3.97;;;;;;;13.87;46.01;101193.25;5050431;28;20025;-73
2024/01/06 09:15:23;;;;;;;5.87;3.00;;;;;;;13.06;46.74;101206.78;5048110;28;20029;-73
2024/01/06 09:17:48;;;;;;;3.93;1.73;;;;;;;12.56;47.32;101213.56;5050422;28;20233;-73
2024/01/06 09:20:13;;;;;;;9.10;3.40;;;;;;;12.38;47.96;101215.53;5026301;28;20065;-73
2024/01/06 09:22:39;;;;;;;4.10;2.50;;;;;;;12.21;48.56;101227.94;5058559;28;20594;-73
2024/01/06 09:25:05;;;;;;;2.77;2.23;;;;;;;12.32;48.23;101228.72;5058017;28;20485;-73
2024/01/06 09:27:30;;;;;;;4.47;3.00;;;;;;;13.84;45.04;101221.34;5047482;28;20523;-72
2024/01/06 09:29:55;;;;;;;4.07;2.80;;;;;;;13.86;45.01;101228.31;5049102;28;20036;-73
2024/01/06 09:32:22;;;;;;;3.93;2.70;;;;;;;13.24;47.22;101239.78;5030970;28;20100;-73
2024/01/06 09:34:48;;;;;;;4.40;2.80;;;;;;;14.19;44.76;101235.63;5040201;28;20029;-73
2024/01/06 09:37:13;;;;;;;3.97;2.83;;;;;;;13.82;44.85;101241.53;5069779;28;20016;-73
2024/01/06 09:39:39;;;;;;;6.27;3.37;;;;;;;13.53;46.01;101245.50;5057072;28;20579;-73
2024/01/06 09:42:05;;;;;;;4.57;2.40;;;;;;;12.77;47.56;101253.53;5049353;28;20040;-73
2024/01/06 09:44:31;;;;;;;5.57;2.93;;;;;;;13.08;47.01;101251.38;5052753;28;20066;-73
2024/01/06 09:46:59;;;;;;;5.13;3.23;;;;;;;13.88;45.32;101257.19;5056339;28;20026;-73
2024/01/06 09:49:31;;;;;;;4.67;2.43;;;;;;;13.09;47.10;101260.97;5034228;28;20535;-73
2024/01/06 09:51:59;;;;;;;4.95;3.25;;;;;;;14.45;44.35;101265.81;5048919;28;20021;-73
2024/01/06 09:54:29;;;;;;;4.40;2.50;;;;;;;13.42;46.54;101265.81;5052473;28;20049;-73
2024/01/06 09:56:56;;;;;;;7.60;3.43;;;;;;;14.43;44.67;101277.22;5053384;28;20079;-73
2024/01/06 09:59:22;;;;;;;4.23;2.73;;;;;;;13.83;45.11;101286.16;5049909;28;20074;-73
2024/01/06 10:01:49;;;;;;;4.40;2.67;;;;;;;13.86;45.49;101286.13;5048270;28;20107;-73
2024/01/06 10:04:14;;;;;;;5.70;2.97;;;;;;;13.00;46.59;101282.97;5048889;28;20032;-73
2024/01/06 10:06:41;;;;;;;4.70;3.43;;;;;;;13.73;46.58;101279.34;5047937;28;20484;-73
2024/01/06 10:09:07;;;;;;;4.87;2.80;;;;;;;14.45;44.58;101292.13;5047904;28;20124;-73
2024/01/06 10:11:32;;;;;;;4.07;2.83;;;;;;;13.72;45.02;101283.72;5048405;28;20119;-73
2024/01/06 10:13:57;;;;;;;5.13;3.20;;;;;;;13.32;46.79;101300.03;5049110;28;20548;-73
2024/01/06 10:16:23;;;;;;;6.10;3.10;;;;;;;14.17;44.96;101290.00;5058121;28;20492;-73
2024/01/06 10:18:48;;;;;;;9.67;3.53;;;;;;;13.06;46.26;101298.66;5039797;28;20041;-73
2024/01/06 10:21:17;;;;;;;4.23;2.43;;;;;;;14.15;44.37;101297.91;5050527;28;20032;-73
2024/01/06 10:23:43;;;;;;;4.77;3.00;;;;;;;14.03;44.77;101304.25;5048718;28;20024;-73
2024/01/06 10:26:12;;;;;;;6.73;2.87;;;;;;;13.84;45.01;101308.91;5056319;28;20021;-73
2024/01/06 10:28:38;;;;;;;6.67;3.53;;;;;;;14.15;43.72;101302.28;5070324;28;20107;-73
2024/01/06 10:31:03;;;;;;;5.23;2.90;;;;;;;14.02;44.41;101307.75;5060804;28;20128;-73
2024/01/06 10:33:32;;;;;;;8.57;3.10;;;;;;;14.05;44.23;101306.84;5048996;28;20067;-74
2024/01/06 10:36:00;;;;;;;3.63;2.70;;;;;;;14.64;43.07;101311.06;5052902;28;20035;-73
2024/01/06 10:38:26;;;;;;;5.23;2.73;;;;;;;14.72;43.17;101310.03;5054908;28;20036;-73
2024/01/06 10:40:58;;;;;;;6.43;3.50;;;;;;;14.30;43.71;101317.81;5050819;28;20039;-73
2024/01/06 10:43:29;;;;;;;4.55;3.30;;;;;;;13.56;44.85;101326.88;5033946;28;20108;-73
2024/01/06 10:46:03;;;;;;;5.40;3.43;;;;;;;13.94;44.17;101324.56;5050986;28;20037;-72
2024/01/06 10:48:31;;;;;;;7.10;3.87;;;;;;;13.57;44.97;101336.47;5058540;28;20025;-73
2024/01/06 10:50:58;;;;;;;9.17;3.10;;;;;;;12.94;45.50;101330.28;5040423;28;20403;-73
2024/01/06 10:53:26;;;;;;;4.53;3.37;;;;;;;13.08;46.04;101327.50;5044305;28;20017;-73
2024/01/06 10:55:53;;;;;;;4.97;2.80;;;;;;;12.76;45.76;101335.72;5044927;28;20115;-73
2024/01/06 10:58:19;;;;;;;17.27;7.77;;;;;;;13.18;46.28;101344.00;5046480;28;20132;-73
2024/01/06 11:00:45;;;;;;;8.77;3.80;;;;;;;12.60;46.33;101333.28;5044182;28;20047;-73
2024/01/06 11:03:12;;;;;;;14.13;7.50;;;;;;;13.18;45.71;101342.22;5045812;28;20491;-74
2024/01/06 11:05:40;;;;;;;23.73;11.17;;;;;;;13.96;43.69;101339.41;5047614;28;20060;-73
2024/01/06 11:08:06;;;;;;;13.57;7.70;;;;;;;13.54;44.52;101341.78;5059877;28;20020;-73
2024/01/06 11:10:33;;;;;;;13.87;7.43;;;;;;;14.60;42.38;101344.44;5056302;28;20029;-74
2024/01/06 11:13:08;;;;;;;66.67;20.73;;;;;;;12.76;45.84;101343.59;5058752;28;20036;-73
2024/01/06 11:15:44;;;;;;;72.93;26.57;;;;;;;13.69;44.68;101341.56;5047123;28;20033;-73
2024/01/06 11:18:37;;;;;;;22.03;8.87;;;;;;;12.96;46.15;101339.00;5053900;28;20542;-73